Terminal Aerodrome Forecast
Issued by NWS Albany, NY

Home | Current Version | Previous Version | Text Only | Print | Product List | Glossary On
Versions: 1 2 3 4 5 6 7 8 9 10 11 12 13 14 15 16 17 18 19 20 21 22 23 24 25 26 27 28 29 30 31 32 33 34
722
FTUS41 KALY 280059 AAB
TAFPOU
TAF AMD
KPOU 280059Z 2801/2824 VRB05KT P6SM OVC017
     FM280400 15005KT 6SM BR VCTS BKN040CB
     FM280700 15004KT 6SM BR VCSH BKN050
     FM280900 15004KT P6SM OVC050
     FM281400 26004KT P6SM SCT250
     FM281500 28004KT P6SM BKN250
     FM281600 27004KT P6SM SCT250=

USA.gov is the U.S. government's official web portal to all federal, state and local government web resources and services.